DNAAGVNP

Guest
Details From DNAA - Nnamdi Azikiwe Intl
To GVNP - Praia International
Flight Number -
Tags Generated
Created
Modified
Stats Distance 1,840 nm / 3,407 km
Max Altitude 0 ft / 0 m
Waypoints 5
Social Downloads 1
Likes 0
Share VATSIM

Download

Looking for another format? Having issues loading an existing format? Contact us
Advertisement - Login to hide

Notes

Generated

Route

DNAA TAMIL BKO28 PRA GVNP

ID Type Via Altitude Latitude Longitude Leg Dist Tot Dist Heading (true) Name
O DNAA APT - 0 ft / 0 m 8.99344˚ 7.25374˚ - 0 nm - -
TAMIL FIX - 0 ft / 0 m 10.63444˚ 0.01806˚ 439 nm 439 nm 284° / 282° -
BKO28 FIX - 0 ft / 0 m 12.32388˚ -8.13785˚ 490 nm 929 nm 283° / 281° -
PRA NDB - 0 ft / 0 m 14.92259˚ -23.49622˚ 909 nm 1839 nm 282° / 278° PRAIA NDB
O GVNP APT - 0 ft / 0 m 14.91916˚ -23.49573˚ 0 nm 1839 nm 172° / 172° -

Altitude Profile

Advertisement - Login to hide

Weather


0- 5 10 15 20 25 30 35+ Temperature / ° C

Clouds and Precipitation
Forecast for 2017-12-16 12:00 UTC. Updated 2 hours ago

Ground ~20,000 ft ~40,000 ft Winds

DNAA

Details ICAO DNAA (ABV)
Name NNAMDI AZIKIWE INTL
Region Nigeria
Timezone Africa/Lagos (UTC+1.0)
Stats Elevation 1,123 ft / 342 m (AMSL)
Location 9.006790° 7.263171°
Runways 1
Magnetic Variation 0.814° W

METAR

Not found

TAF

TAF DNAA 160340Z 1606/1712 06005KT CAVOK BECMG 1608/1610 14012KT

Decode

Departure Runways

ID Width Length Bearing (true) Bearing (mag) Surface Threshold Offset Overrun Length
04 197 ft / 60 m 11,883 ft / 3,622 m 34.91° 35.72° Asphalt 0 ft / 0 m 210 ft / 64 m
22 197 ft / 60 m 11,883 ft / 3,622 m 214.91° 215.72° Asphalt 0 ft / 0 m 210 ft / 64 m

GVNP

Details ICAO GVNP (RAI)
Name PRAIA INTERNATIONAL
Region Cape Verde
Timezone Atlantic/Cape_Verde (UTC-1.0)
Stats Elevation 230 ft / 70 m (AMSL)
Location 14.932581° -23.489194°
Runways 2
Magnetic Variation 9.884° W

METAR

GVNP 160900Z 05015KT 9000 NSC 24/15 Q1017 NOSIG

Decode

TAF

TAF GVNP 152300Z 1600/1706 05017KT 8000 SCT018

Decode

Destination Runways

ID Width Length Bearing (true) Bearing (mag) Surface Threshold Offset Overrun Length
03L 98 ft / 30 m 4,188 ft / 1,277 m 21.85° 31.73° Asphalt 0 ft / 0 m 0 ft / 0 m
03R 148 ft / 45 m 6,906 ft / 2,105 m 21.78° 31.66° Asphalt 650 ft / 198 m 0 ft / 0 m
21L 148 ft / 45 m 6,906 ft / 2,105 m 201.78° 211.66° Asphalt 0 ft / 0 m 0 ft / 0 m
21R 98 ft / 30 m 4,188 ft / 1,277 m 201.86° 211.74° Asphalt 0 ft / 0 m 0 ft / 0 m